sensor_id;sensor_type;location;lat;lon;timestamp;pressure;altitude;pressure_sealevel;temperature;humidity
60489;BME280;46331;49.252;8.904;2023-03-07T00:00:16;98621.00;;;3.53;69.13
60489;BME280;46331;49.252;8.904;2023-03-07T00:00:57;98623.41;;;3.55;68.87
60489;BME280;46331;49.252;8.904;2023-03-07T00:01:37;98626.38;;;3.58;68.76
60489;BME280;46331;49.252;8.904;2023-03-07T00:02:18;98623.19;;;3.56;68.87
60489;BME280;46331;49.252;8.904;2023-03-07T00:02:58;98620.13;;;3.60;68.47
60489;BME280;46331;49.252;8.904;2023-03-07T00:03:39;98624.78;;;3.57;68.44
60489;BME280;46331;49.252;8.904;2023-03-07T00:04:19;98626.38;;;3.58;68.93
60489;BME280;46331;49.252;8.904;2023-03-07T00:05:00;98633.13;;;3.48;68.42
60489;BME280;46331;49.252;8.904;2023-03-07T00:05:41;98625.78;;;3.56;68.56
60489;BME280;46331;49.252;8.904;2023-03-07T00:06:22;98619.75;;;3.56;68.38
60489;BME280;46331;49.252;8.904;2023-03-07T00:07:02;98627.41;;;3.57;68.10
60489;BME280;46331;49.252;8.904;2023-03-07T00:07:43;98627.09;;;3.47;68.15
60489;BME280;46331;49.252;8.904;2023-03-07T00:08:23;98626.22;;;3.53;68.78
60489;BME280;46331;49.252;8.904;2023-03-07T00:09:04;98632.88;;;3.56;68.46
60489;BME280;46331;49.252;8.904;2023-03-07T00:09:45;98627.19;;;3.59;68.52
60489;BME280;46331;49.252;8.904;2023-03-07T00:10:25;98630.91;;;3.51;68.51
60489;BME280;46331;49.252;8.904;2023-03-07T00:11:07;98625.56;;;3.58;68.59
60489;BME280;46331;49.252;8.904;2023-03-07T00:11:48;98630.16;;;3.63;68.62
60489;BME280;46331;49.252;8.904;2023-03-07T00:12:29;98627.41;;;3.57;68.58
60489;BME280;46331;49.252;8.904;2023-03-07T00:13:10;98626.97;;;3.61;68.51
60489;BME280;46331;49.252;8.904;2023-03-07T00:13:50;98633.88;;;3.55;68.21
60489;BME280;46331;49.252;8.904;2023-03-07T00:14:31;98621.50;;;3.62;68.17
60489;BME280;46331;49.252;8.904;2023-03-07T00:15:12;98625.78;;;3.56;68.35
60489;BME280;46331;49.252;8.904;2023-03-07T00:15:53;98628.50;;;3.50;68.60
60489;BME280;46331;49.252;8.904;2023-03-07T00:16:33;98625.56;;;3.58;68.47
60489;BME280;46331;49.252;8.904;2023-03-07T00:17:14;98626.97;;;3.61;68.48
60489;BME280;46331;49.252;8.904;2023-03-07T00:17:56;98628.19;;;3.58;68.51
60489;BME280;46331;49.252;8.904;2023-03-07T00:18:36;98625.13;;;3.61;68.39
60489;BME280;46331;49.252;8.904;2023-03-07T00:19:17;98629.00;;;3.58;68.85
60489;BME280;46331;49.252;8.904;2023-03-07T00:20:00;98623.91;;;3.64;68.25
60489;BME280;46331;49.252;8.904;2023-03-07T00:20:41;98615.44;;;3.62;68.26
60489;BME280;46331;49.252;8.904;2023-03-07T00:21:22;98629.94;;;3.64;67.88
60489;BME280;46331;49.252;8.904;2023-03-07T00:22:02;98620.63;;;3.68;67.91
60489;BME280;46331;49.252;8.904;2023-03-07T00:22:43;98630.16;;;3.63;67.78
60489;BME280;46331;49.252;8.904;2023-03-07T00:23:26;98622.59;;;3.54;68.50
60489;BME280;46331;49.252;8.904;2023-03-07T00:24:08;98627.97;;;3.60;68.30
60489;BME280;46331;49.252;8.904;2023-03-07T00:24:49;98623.09;;;3.63;68.15
60489;BME280;46331;49.252;8.904;2023-03-07T00:25:29;98622.59;;;3.54;68.41
60489;BME280;46331;49.252;8.904;2023-03-07T00:26:15;98637.38;;;3.49;67.74
60489;BME280;46331;49.252;8.904;2023-03-07T00:26:57;98633.97;;;3.48;68.65
60489;BME280;46331;49.252;8.904;2023-03-07T00:27:37;98630.03;;;3.39;68.63
60489;BME280;46331;49.252;8.904;2023-03-07T00:28:18;98620.25;;;3.46;68.70
60489;BME280;46331;49.252;8.904;2023-03-07T00:28:58;98621.56;;;3.55;68.39
60489;BME280;46331;49.252;8.904;2023-03-07T00:29:39;98629.88;;;3.52;68.53
60489;BME280;46331;49.252;8.904;2023-03-07T00:30:19;98627.41;;;3.57;68.25
60489;BME280;46331;49.252;8.904;2023-03-07T00:31:02;98622.81;;;3.53;68.08
60489;BME280;46331;49.252;8.904;2023-03-07T00:31:43;98619.81;;;3.49;67.44
60489;BME280;46331;49.252;8.904;2023-03-07T00:32:23;98631.47;;;3.53;67.90
60489;BME280;46331;49.252;8.904;2023-03-07T00:33:04;98625.56;;;3.58;68.13
60489;BME280;46331;49.252;8.904;2023-03-07T00:33:45;98622.31;;;3.63;67.93
60489;BME280;46331;49.252;8.904;2023-03-07T00:34:25;98627.84;;;3.54;68.06
60489;BME280;46331;49.252;8.904;2023-03-07T00:35:06;98618.50;;;3.58;68.12
60489;BME280;46331;49.252;8.904;2023-03-07T00:35:56;98617.28;;;3.43;68.65
60489;BME280;46331;49.252;8.904;2023-03-07T00:36:37;98626.34;;;3.40;68.79
60489;BME280;46331;49.252;8.904;2023-03-07T00:37:18;98629.72;;;3.47;68.67
60489;BME280;46331;49.252;8.904;2023-03-07T00:37:58;98623.53;;;3.42;69.14
60489;BME280;46331;49.252;8.904;2023-03-07T00:38:40;98628.31;;;3.45;68.98
60489;BME280;46331;49.252;8.904;2023-03-07T00:39:21;98633.06;;;3.36;69.77
60489;BME280;46331;49.252;8.904;2023-03-07T00:40:02;98628.53;;;3.43;69.30
60489;BME280;46331;49.252;8.904;2023-03-07T00:40:43;98635.25;;;3.39;69.63
60489;BME280;46331;49.252;8.904;2023-03-07T00:41:25;98623.38;;;3.36;69.45
60489;BME280;46331;49.252;8.904;2023-03-07T00:42:07;98628.19;;;3.39;69.58
60489;BME280;46331;49.252;8.904;2023-03-07T00:42:47;98635.25;;;3.39;69.29
60489;BME280;46331;49.252;8.904;2023-03-07T00:43:28;98629.59;;;3.42;68.64
60489;BME280;46331;49.252;8.904;2023-03-07T00:44:09;98631.59;;;3.40;69.18
60489;BME280;46331;49.252;8.904;2023-03-07T00:44:50;98623.16;;;3.38;69.17
60489;BME280;46331;49.252;8.904;2023-03-07T00:45:30;98629.84;;;3.34;69.21
60489;BME280;46331;49.252;8.904;2023-03-07T00:46:11;98636.28;;;3.38;69.02
60489;BME280;46331;49.252;8.904;2023-03-07T00:46:52;98632.25;;;3.35;68.90
60489;BME280;46331;49.252;8.904;2023-03-07T00:47:32;98630.81;;;3.39;69.32
60489;BME280;46331;49.252;8.904;2023-03-07T00:48:13;98635.25;;;3.39;69.30
60489;BME280;46331;49.252;8.904;2023-03-07T00:48:53;98629.94;;;3.46;69.42
60489;BME280;46331;49.252;8.904;2023-03-07T00:49:34;98621.78;;;3.35;68.96
60489;BME280;46331;49.252;8.904;2023-03-07T00:50:15;98622.00;;;3.34;69.08
60489;BME280;46331;49.252;8.904;2023-03-07T00:50:55;98625.56;;;3.39;69.12
60489;BME280;46331;49.252;8.904;2023-03-07T00:51:38;98618.44;;;3.28;69.54
60489;BME280;46331;49.252;8.904;2023-03-07T00:52:18;98616.03;;;3.27;70.01
60489;BME280;46331;49.252;8.904;2023-03-07T00:52:59;98619.22;;;3.29;70.25
60489;BME280;46331;49.252;8.904;2023-03-07T00:53:40;98617.75;;;3.14;70.51
60489;BME280;46331;49.252;8.904;2023-03-07T00:54:21;98604.81;;;3.19;70.81
60489;BME280;46331;49.252;8.904;2023-03-07T00:55:02;98613.88;;;3.17;71.04
60489;BME280;46331;49.252;8.904;2023-03-07T00:56:00;98612.19;;;3.04;72.04
60489;BME280;46331;49.252;8.904;2023-03-07T00:56:41;98610.81;;;3.01;72.57
60489;BME280;46331;49.252;8.904;2023-03-07T00:57:22;98603.78;;;3.02;73.15
60489;BME280;46331;49.252;8.904;2023-03-07T00:58:02;98617.50;;;2.97;73.16
60489;BME280;46331;49.252;8.904;2023-03-07T00:58:43;98622.06;;;2.83;74.04
60489;BME280;46331;49.252;8.904;2023-03-07T00:59:24;98608.56;;;2.80;74.70
60489;BME280;46331;49.252;8.904;2023-03-07T01:00:06;98608.41;;;2.75;74.93
60489;BME280;46331;49.252;8.904;2023-03-07T01:00:48;98608.75;;;2.85;75.33
60489;BME280;46331;49.252;8.904;2023-03-07T01:01:29;98608.97;;;2.83;75.65
60489;BME280;46331;49.252;8.904;2023-03-07T01:02:10;98607.56;;;2.81;75.41
60489;BME280;46331;49.252;8.904;2023-03-07T01:02:51;98614.03;;;2.78;76.39
60489;BME280;46331;49.252;8.904;2023-03-07T01:03:32;98610.56;;;2.84;76.53
60489;BME280;46331;49.252;8.904;2023-03-07T01:04:13;98608.75;;;2.85;76.54
60489;BME280;46331;49.252;8.904;2023-03-07T01:04:54;98607.03;;;2.72;77.05
60489;BME280;46331;49.252;8.904;2023-03-07T01:05:38;98600.78;;;2.73;78.06
60489;BME280;46331;49.252;8.904;2023-03-07T01:06:24;98605.88;;;2.68;77.85
60489;BME280;46331;49.252;8.904;2023-03-07T01:07:06;98613.31;;;2.64;78.11
60489;BME280;46331;49.252;8.904;2023-03-07T01:07:47;98608.28;;;2.70;78.19
60489;BME280;46331;49.252;8.904;2023-03-07T01:08:27;98608.91;;;2.65;77.91
60489;BME280;46331;49.252;8.904;2023-03-07T01:09:09;98604.19;;;2.48;92.01
60489;BME280;46331;49.252;8.904;2023-03-07T01:09:50;98596.06;;;2.57;84.92
60489;BME280;46331;49.252;8.904;2023-03-07T01:10:32;98608.56;;;2.55;81.87
60489;BME280;46331;49.252;8.904;2023-03-07T01:11:13;98603.75;;;2.52;81.57
60489;BME280;46331;49.252;8.904;2023-03-07T01:11:54;98594.88;;;2.53;81.60
60489;BME280;46331;49.252;8.904;2023-03-07T01:12:35;98600.59;;;2.43;82.79
60489;BME280;46331;49.252;8.904;2023-03-07T01:13:17;98607.47;;;2.37;83.21
60489;BME280;46331;49.252;8.904;2023-03-07T01:14:00;98596.25;;;2.30;83.56
60489;BME280;46331;49.252;8.904;2023-03-07T01:14:41;98601.69;;;2.28;84.03
60489;BME280;46331;49.252;8.904;2023-03-07T01:15:21;98595.44;;;2.29;84.45
60489;BME280;46331;49.252;8.904;2023-03-07T01:16:22;98591.66;;;2.25;84.67
60489;BME280;46331;49.252;8.904;2023-03-07T01:17:03;98595.75;;;2.14;85.37
60489;BME280;46331;49.252;8.904;2023-03-07T01:17:44;98603.50;;;2.28;85.92
60489;BME280;46331;49.252;8.904;2023-03-07T01:18:25;98598.53;;;2.20;86.19
60489;BME280;46331;49.252;8.904;2023-03-07T01:19:08;98597.09;;;2.24;86.00
60489;BME280;46331;49.252;8.904;2023-03-07T01:19:51;98605.38;;;2.21;86.50
60489;BME280;46331;49.252;8.904;2023-03-07T01:20:34;98595.31;;;2.18;86.64
60489;BME280;46331;49.252;8.904;2023-03-07T01:21:26;98603.38;;;2.16;86.60
60489;BME280;46331;49.252;8.904;2023-03-07T01:22:07;98595.53;;;2.16;86.29
60489;BME280;46331;49.252;8.904;2023-03-07T01:22:47;98595.13;;;2.12;87.47
60489;BME280;46331;49.252;8.904;2023-03-07T01:23:28;98596.78;;;2.07;87.89
60489;BME280;46331;49.252;8.904;2023-03-07T01:24:12;98595.34;;;2.11;87.51
60489;BME280;46331;49.252;8.904;2023-03-07T01:24:53;98595.13;;;2.12;87.92
60489;BME280;46331;49.252;8.904;2023-03-07T01:25:41;98601.41;;;2.11;88.08
60489;BME280;46331;49.252;8.904;2023-03-07T01:26:28;98596.16;;;2.11;88.50
60489;BME280;46331;49.252;8.904;2023-03-07T01:27:09;98591.78;;;2.05;88.08
60489;BME280;46331;49.252;8.904;2023-03-07T01:27:53;98591.97;;;2.04;88.32
60489;BME280;46331;49.252;8.904;2023-03-07T01:28:41;98598.00;;;2.04;88.63
60489;BME280;46331;49.252;8.904;2023-03-07T01:29:21;98594.38;;;2.05;88.98
60489;BME280;46331;49.252;8.904;2023-03-07T01:30:03;98594.38;;;2.05;89.17
60489;BME280;46331;49.252;8.904;2023-03-07T01:30:44;98592.59;;;1.99;89.29
60489;BME280;46331;49.252;8.904;2023-03-07T01:31:24;98591.38;;;2.02;89.80
60489;BME280;46331;49.252;8.904;2023-03-07T01:32:05;98590.78;;;2.00;89.39
60489;BME280;46331;49.252;8.904;2023-03-07T01:32:46;98601.28;;;1.93;89.90
60489;BME280;46331;49.252;8.904;2023-03-07T01:33:28;98590.22;;;1.91;90.23
60489;BME280;46331;49.252;8.904;2023-03-07T01:34:09;98592.81;;;1.91;91.04
60489;BME280;46331;49.252;8.904;2023-03-07T01:34:50;98596.47;;;1.90;90.69
60489;BME280;46331;49.252;8.904;2023-03-07T01:35:36;98588.44;;;1.91;91.38
60489;BME280;46331;49.252;8.904;2023-03-07T01:36:21;98583.94;;;1.99;91.33
60489;BME280;46331;49.252;8.904;2023-03-07T01:37:04;98582.38;;;1.91;91.27
60489;BME280;46331;49.252;8.904;2023-03-07T01:37:47;98586.22;;;1.88;91.54
60489;BME280;46331;49.252;8.904;2023-03-07T01:38:28;98577.16;;;1.91;91.33
60489;BME280;46331;49.252;8.904;2023-03-07T01:39:15;98591.25;;;1.90;92.01
60489;BME280;46331;49.252;8.904;2023-03-07T01:40:19;98588.63;;;1.83;92.69
60489;BME280;46331;49.252;8.904;2023-03-07T01:41:01;98589.63;;;1.89;92.45
60489;BME280;46331;49.252;8.904;2023-03-07T01:41:43;98590.63;;;1.88;92.71
60489;BME280;46331;49.252;8.904;2023-03-07T01:42:29;98587.44;;;1.86;92.63
60489;BME280;46331;49.252;8.904;2023-03-07T01:44:20;98587.59;;;1.91;92.37
60489;BME280;46331;49.252;8.904;2023-03-07T01:46:01;98584.97;;;1.98;92.99
60489;BME280;46331;49.252;8.904;2023-03-07T01:46:58;98583.81;;;1.87;92.99
60489;BME280;46331;49.252;8.904;2023-03-07T01:47:48;98578.19;;;1.90;92.79
60489;BME280;46331;49.252;8.904;2023-03-07T01:48:29;98578.19;;;1.90;93.35
60489;BME280;46331;49.252;8.904;2023-03-07T01:50:01;98573.53;;;1.92;93.06
60489;BME280;46331;49.252;8.904;2023-03-07T01:50:45;98579.97;;;1.89;93.84
60489;BME280;46331;49.252;8.904;2023-03-07T01:51:27;98561.09;;;1.87;93.45
60489;BME280;46331;49.252;8.904;2023-03-07T01:52:16;98574.78;;;1.83;93.61
60489;BME280;46331;49.252;8.904;2023-03-07T01:53:01;98565.53;;;1.87;93.78
60489;BME280;46331;49.252;8.904;2023-03-07T01:53:42;98561.88;;;1.88;93.79
60489;BME280;46331;49.252;8.904;2023-03-07T01:54:25;98564.06;;;1.91;93.95
60489;BME280;46331;49.252;8.904;2023-03-07T01:55:13;98563.50;;;1.89;93.64
60489;BME280;46331;49.252;8.904;2023-03-07T01:55:55;98560.88;;;1.89;93.92
60489;BME280;46331;49.252;8.904;2023-03-07T01:56:38;98551.84;;;1.85;93.84
60489;BME280;46331;49.252;8.904;2023-03-07T01:57:20;98552.63;;;1.92;94.17
60489;BME280;46331;49.252;8.904;2023-03-07T01:58:08;98552.41;;;1.93;93.94
60489;BME280;46331;49.252;8.904;2023-03-07T01:58:50;98555.47;;;1.84;94.16
60489;BME280;46331;49.252;8.904;2023-03-07T01:59:33;98557.47;;;1.82;94.45
60489;BME280;46331;49.252;8.904;2023-03-07T02:00:18;98546.59;;;1.85;94.54
60489;BME280;46331;49.252;8.904;2023-03-07T02:01:08;98551.25;;;1.83;94.23
60489;BME280;46331;49.252;8.904;2023-03-07T02:01:50;98547.59;;;1.90;94.83
60489;BME280;46331;49.252;8.904;2023-03-07T02:02:32;98548.38;;;1.98;94.54
60489;BME280;46331;49.252;8.904;2023-03-07T02:03:22;98547.38;;;1.92;94.35
60489;BME280;46331;49.252;8.904;2023-03-07T02:04:24;98539.75;;;1.90;94.10
60489;BME280;46331;49.252;8.904;2023-03-07T02:05:26;98543.78;;;1.93;93.85
60489;BME280;46331;49.252;8.904;2023-03-07T02:06:11;98539.13;;;1.95;94.38
60489;BME280;46331;49.252;8.904;2023-03-07T02:06:52;98541.16;;;1.86;94.61
60489;BME280;46331;49.252;8.904;2023-03-07T02:07:38;98540.59;;;1.84;95.31
60489;BME280;46331;49.252;8.904;2023-03-07T02:08:23;98541.59;;;1.83;95.08
60489;BME280;46331;49.252;8.904;2023-03-07T02:09:07;98541.38;;;1.85;95.11
60489;BME280;46331;49.252;8.904;2023-03-07T02:09:52;98534.00;;;1.75;95.35
60489;BME280;46331;49.252;8.904;2023-03-07T02:10:34;98528.31;;;1.85;95.40
60489;BME280;46331;49.252;8.904;2023-03-07T02:11:15;98528.31;;;1.85;95.08
60489;BME280;46331;49.252;8.904;2023-03-07T02:11:57;98533.75;;;1.83;95.18
60489;BME280;46331;49.252;8.904;2023-03-07T02:12:40;98531.75;;;1.78;95.30
60489;BME280;46331;49.252;8.904;2023-03-07T02:13:21;98521.31;;;1.78;95.43
60489;BME280;46331;49.252;8.904;2023-03-07T02:14:02;98533.38;;;1.79;95.00
60489;BME280;46331;49.252;8.904;2023-03-07T02:14:43;98540.78;;;1.83;95.01
60489;BME280;46331;49.252;8.904;2023-03-07T02:15:25;98535.16;;;1.86;95.26
60489;BME280;46331;49.252;8.904;2023-03-07T02:16:06;98528.09;;;1.86;95.37
60489;BME280;46331;49.252;8.904;2023-03-07T02:16:47;98528.53;;;1.83;95.72
60489;BME280;46331;49.252;8.904;2023-03-07T02:17:27;98531.34;;;1.82;95.79
60489;BME280;46331;49.252;8.904;2023-03-07T02:18:11;98529.72;;;1.87;95.62
60489;BME280;46331;49.252;8.904;2023-03-07T02:18:53;98532.75;;;1.84;96.28
60489;BME280;46331;49.252;8.904;2023-03-07T02:20:38;98530.50;;;1.88;95.04
60489;BME280;46331;49.252;8.904;2023-03-07T02:21:35;98530.94;;;1.85;95.51
60489;BME280;46331;49.252;8.904;2023-03-07T02:22:18;98524.53;;;1.81;95.75
60489;BME280;46331;49.252;8.904;2023-03-07T02:23:00;98532.59;;;1.79;95.60
60489;BME280;46331;49.252;8.904;2023-03-07T02:27:17;98532.97;;;1.83;96.42
60489;BME280;46331;49.252;8.904;2023-03-07T02:27:58;98535.34;;;1.84;96.14
60489;BME280;46331;49.252;8.904;2023-03-07T02:28:39;98526.09;;;1.88;95.92
60489;BME280;46331;49.252;8.904;2023-03-07T02:29:23;98529.34;;;1.77;96.63
60489;BME280;46331;49.252;8.904;2023-03-07T02:30:04;98525.53;;;1.79;96.87
60489;BME280;46331;49.252;8.904;2023-03-07T02:31:35;98520.16;;;1.74;96.97
60489;BME280;46331;49.252;8.904;2023-03-07T02:32:16;98525.94;;;1.76;97.07
60489;BME280;46331;49.252;8.904;2023-03-07T02:32:56;98531.75;;;1.78;96.72
60489;BME280;46331;49.252;8.904;2023-03-07T02:33:37;98528.72;;;1.82;96.99
60489;BME280;46331;49.252;8.904;2023-03-07T02:34:25;98530.13;;;1.84;96.92
60489;BME280;46331;49.252;8.904;2023-03-07T02:35:20;98525.13;;;1.83;97.02
60489;BME280;46331;49.252;8.904;2023-03-07T02:36:09;98525.16;;;1.76;97.77
60489;BME280;46331;49.252;8.904;2023-03-07T02:37:37;98528.56;;;1.76;97.39
60489;BME280;46331;49.252;8.904;2023-03-07T02:38:19;98519.75;;;1.71;97.30
60489;BME280;46331;49.252;8.904;2023-03-07T02:39:01;98524.94;;;1.77;97.32
60489;BME280;46331;49.252;8.904;2023-03-07T02:39:47;98524.53;;;1.81;97.82
60489;BME280;46331;49.252;8.904;2023-03-07T02:40:30;98521.56;;;1.70;97.51
60489;BME280;46331;49.252;8.904;2023-03-07T02:41:12;98523.75;;;1.73;97.42
60489;BME280;46331;49.252;8.904;2023-03-07T02:41:53;98525.13;;;1.83;97.59
60489;BME280;46331;49.252;8.904;2023-03-07T02:42:42;98521.72;;;1.82;97.75
60489;BME280;46331;49.252;8.904;2023-03-07T02:43:26;98521.72;;;1.75;97.65
60489;BME280;46331;49.252;8.904;2023-03-07T02:44:07;98522.34;;;1.77;97.87
60489;BME280;46331;49.252;8.904;2023-03-07T02:44:55;98520.94;;;1.75;97.65
60489;BME280;46331;49.252;8.904;2023-03-07T02:45:36;98514.91;;;1.74;97.85
60489;BME280;46331;49.252;8.904;2023-03-07T02:46:17;98529.34;;;1.77;97.76
60489;BME280;46331;49.252;8.904;2023-03-07T02:46:59;98520.50;;;1.78;97.90
60489;BME280;46331;49.252;8.904;2023-03-07T02:47:42;98521.72;;;1.75;98.28
60489;BME280;46331;49.252;8.904;2023-03-07T02:48:24;98521.50;;;1.84;98.31
60489;BME280;46331;49.252;8.904;2023-03-07T02:49:04;98524.38;;;1.69;98.22
60489;BME280;46331;49.252;8.904;2023-03-07T02:49:46;98524.19;;;1.70;98.73
60489;BME280;46331;49.252;8.904;2023-03-07T02:50:26;98519.94;;;1.76;98.29
60489;BME280;46331;49.252;8.904;2023-03-07T02:51:07;98522.56;;;1.69;98.49
60489;BME280;46331;49.252;8.904;2023-03-07T02:51:48;98521.72;;;1.75;98.56
60489;BME280;46331;49.252;8.904;2023-03-07T02:52:28;98521.94;;;1.74;99.24
60489;BME280;46331;49.252;8.904;2023-03-07T02:53:09;98518.75;;;1.72;98.63
60489;BME280;46331;49.252;8.904;2023-03-07T02:53:50;98519.94;;;1.76;98.91
60489;BME280;46331;49.252;8.904;2023-03-07T02:54:31;98519.53;;;1.72;98.93
60489;BME280;46331;49.252;8.904;2023-03-07T02:55:12;98514.91;;;1.74;98.94
60489;BME280;46331;49.252;8.904;2023-03-07T02:55:58;98513.25;;;1.80;99.19
60489;BME280;46331;49.252;8.904;2023-03-07T02:56:39;98517.31;;;1.76;99.05
60489;BME280;46331;49.252;8.904;2023-03-07T02:57:19;98521.50;;;1.84;99.14
60489;BME280;46331;49.252;8.904;2023-03-07T02:58:00;98522.13;;;1.79;99.31
60489;BME280;46331;49.252;8.904;2023-03-07T02:58:42;98510.84;;;1.78;99.01
60489;BME280;46331;49.252;8.904;2023-03-07T02:59:22;98513.03;;;1.82;99.42
60489;BME280;46331;49.252;8.904;2023-03-07T03:00:03;98511.63;;;1.86;99.48
60489;BME280;46331;49.252;8.904;2023-03-07T03:00:46;98507.44;;;1.78;99.71
60489;BME280;46331;49.252;8.904;2023-03-07T03:01:28;98514.72;;;1.76;99.61
60489;BME280;46331;49.252;8.904;2023-03-07T03:02:08;98507.66;;;1.76;99.42
60489;BME280;46331;49.252;8.904;2023-03-07T03:02:49;98503.00;;;1.78;99.63
60489;BME280;46331;49.252;8.904;2023-03-07T03:03:29;98505.47;;;1.73;99.33
60489;BME280;46331;49.252;8.904;2023-03-07T03:04:10;98508.88;;;1.74;99.65
60489;BME280;46331;49.252;8.904;2023-03-07T03:04:51;98498.03;;;1.70;100.00
60489;BME280;46331;49.252;8.904;2023-03-07T03:05:31;98509.28;;;1.71;99.94
60489;BME280;46331;49.252;8.904;2023-03-07T03:06:12;98502.28;;;1.71;99.24
60489;BME280;46331;49.252;8.904;2023-03-07T03:06:53;98506.66;;;1.77;99.02
60489;BME280;46331;49.252;8.904;2023-03-07T03:07:33;98502.28;;;1.71;99.61
60489;BME280;46331;49.252;8.904;2023-03-07T03:08:15;98504.03;;;1.77;99.26
60489;BME280;46331;49.252;8.904;2023-03-07T03:08:56;98505.66;;;1.72;99.40
60489;BME280;46331;49.252;8.904;2023-03-07T03:09:36;98506.88;;;1.69;99.30
60489;BME280;46331;49.252;8.904;2023-03-07T03:10:17;98505.31;;;1.68;99.33
60489;BME280;46331;49.252;8.904;2023-03-07T03:10:58;98507.28;;;1.73;99.52
60489;BME280;46331;49.252;8.904;2023-03-07T03:11:40;98501.88;;;1.68;99.74
60489;BME280;46331;49.252;8.904;2023-03-07T03:12:21;98499.66;;;1.65;99.62
60489;BME280;46331;49.252;8.904;2023-03-07T03:13:01;98506.50;;;1.66;100.00
60489;BME280;46331;49.252;8.904;2023-03-07T03:13:42;98510.91;;;1.72;99.71
60489;BME280;46331;49.252;8.904;2023-03-07T03:14:22;98498.84;;;1.71;99.47
60489;BME280;46331;49.252;8.904;2023-03-07T03:15:04;98505.25;;;1.75;99.64
60489;BME280;46331;49.252;8.904;2023-03-07T03:15:47;98507.28;;;1.73;100.00
60489;BME280;46331;49.252;8.904;2023-03-07T03:16:27;98504.03;;;1.77;99.81
60489;BME280;46331;49.252;8.904;2023-03-07T03:17:08;98506.25;;;1.74;99.70
60489;BME280;46331;49.252;8.904;2023-03-07T03:17:52;98507.06;;;1.74;99.95
60489;BME280;46331;49.252;8.904;2023-03-07T03:18:32;98511.06;;;1.77;99.88
60489;BME280;46331;49.252;8.904;2023-03-07T03:19:13;98503.19;;;1.84;100.00
60489;BME280;46331;49.252;8.904;2023-03-07T03:19:55;98504.78;;;1.85;100.00
60489;BME280;46331;49.252;8.904;2023-03-07T03:20:38;98510.41;;;1.88;100.00
60489;BME280;46331;49.252;8.904;2023-03-07T03:21:19;98509.81;;;1.86;100.00
60489;BME280;46331;49.252;8.904;2023-03-07T03:22:00;98508.00;;;1.87;100.00
60489;BME280;46331;49.252;8.904;2023-03-07T03:22:43;98494.34;;;1.85;100.00
60489;BME280;46331;49.252;8.904;2023-03-07T03:23:27;98499.97;;;1.88;100.00
60489;BME280;46331;49.252;8.904;2023-03-07T03:24:08;98502.38;;;1.90;99.86
60489;BME280;46331;49.252;8.904;2023-03-07T03:24:50;98496.78;;;1.79;100.00
60489;BME280;46331;49.252;8.904;2023-03-07T03:25:32;98501.00;;;1.81;99.98
60489;BME280;46331;49.252;8.904;2023-03-07T03:26:13;98500.19;;;1.80;99.52
60489;BME280;46331;49.252;8.904;2023-03-07T03:26:55;98498.63;;;1.72;100.00
60489;BME280;46331;49.252;8.904;2023-03-07T03:27:37;98500.41;;;1.78;99.93
60489;BME280;46331;49.252;8.904;2023-03-07T03:28:18;98504.78;;;1.85;99.38
60489;BME280;46331;49.252;8.904;2023-03-07T03:28:58;98505.41;;;1.87;99.65
60489;BME280;46331;49.252;8.904;2023-03-07T03:29:39;98504.38;;;1.88;99.60
60489;BME280;46331;49.252;8.904;2023-03-07T03:30:20;98500.16;;;1.87;99.45
60489;BME280;46331;49.252;8.904;2023-03-07T03:31:11;98498.28;;;1.94;99.74
60489;BME280;46331;49.252;8.904;2023-03-07T03:31:54;98496.53;;;1.88;99.01
60489;BME280;46331;49.252;8.904;2023-03-07T03:32:36;98507.59;;;1.90;99.20
60489;BME280;46331;49.252;8.904;2023-03-07T03:33:17;98505.13;;;1.95;99.14
60489;BME280;46331;49.252;8.904;2023-03-07T03:33:59;98505.34;;;1.93;99.06
60489;BME280;46331;49.252;8.904;2023-03-07T03:34:40;98505.97;;;1.89;98.43
60489;BME280;46331;49.252;8.904;2023-03-07T03:35:20;98497.44;;;2.00;98.40
60489;BME280;46331;49.252;8.904;2023-03-07T03:36:07;98500.47;;;2.04;97.82
60489;BME280;46331;49.252;8.904;2023-03-07T03:36:48;98504.03;;;2.09;97.66
60489;BME280;46331;49.252;8.904;2023-03-07T03:37:30;98499.97;;;2.13;97.40
60489;BME280;46331;49.252;8.904;2023-03-07T03:38:10;98495.50;;;2.21;97.44
60489;BME280;46331;49.252;8.904;2023-03-07T03:38:52;98491.28;;;2.20;96.67
60489;BME280;46331;49.252;8.904;2023-03-07T03:39:33;98497.09;;;2.22;96.55
60489;BME280;46331;49.252;8.904;2023-03-07T03:40:14;98501.31;;;2.23;96.46
60489;BME280;46331;49.252;8.904;2023-03-07T03:40:57;98496.88;;;2.23;96.19
60489;BME280;46331;49.252;8.904;2023-03-07T03:41:37;98492.91;;;2.21;96.19
60489;BME280;46331;49.252;8.904;2023-03-07T03:42:18;98488.88;;;2.18;95.45
60489;BME280;46331;49.252;8.904;2023-03-07T03:42:59;98485.63;;;2.23;96.11
60489;BME280;46331;49.252;8.904;2023-03-07T03:43:39;98488.47;;;2.21;95.92
60489;BME280;46331;49.252;8.904;2023-03-07T03:44:20;98489.69;;;2.19;95.62
60489;BME280;46331;49.252;8.904;2023-03-07T03:45:01;98486.06;;;2.20;95.51
60489;BME280;46331;49.252;8.904;2023-03-07T03:45:41;98496.84;;;2.30;95.30
60489;BME280;46331;49.252;8.904;2023-03-07T03:46:23;98480.28;;;2.36;95.20
60489;BME280;46331;49.252;8.904;2023-03-07T03:47:03;98488.34;;;2.35;94.64
60489;BME280;46331;49.252;8.904;2023-03-07T03:47:44;98488.09;;;2.43;95.11
60489;BME280;46331;49.252;8.904;2023-03-07T03:48:25;98484.28;;;2.39;94.64
60489;BME280;46331;49.252;8.904;2023-03-07T03:49:10;98487.31;;;2.36;94.92
60489;BME280;46331;49.252;8.904;2023-03-07T03:49:51;98487.09;;;2.37;94.93
60489;BME280;46331;49.252;8.904;2023-03-07T03:50:32;98482.53;;;2.32;95.00
60489;BME280;46331;49.252;8.904;2023-03-07T03:51:12;98483.84;;;2.42;94.91
60489;BME280;46331;49.252;8.904;2023-03-07T03:51:56;98473.16;;;2.43;94.23
60489;BME280;46331;49.252;8.904;2023-03-07T03:52:36;98477.41;;;2.44;94.52
60489;BME280;46331;49.252;8.904;2023-03-07T03:53:17;98479.44;;;2.42;94.29
60489;BME280;46331;49.252;8.904;2023-03-07T03:53:57;98474.03;;;2.37;94.00
60489;BME280;46331;49.252;8.904;2023-03-07T03:54:38;98472.47;;;2.29;93.94
60489;BME280;46331;49.252;8.904;2023-03-07T03:55:19;98472.88;;;2.33;94.01
60489;BME280;46331;49.252;8.904;2023-03-07T03:56:44;98478.63;;;2.42;94.00